createdAt,value
2023-12-09T00:00:59.500Z,77.20
2023-12-09T00:03:27.246Z,77.20
2023-12-09T00:05:55.381Z,78.00
2023-12-09T00:08:23.138Z,77.20
2023-12-09T00:10:50.848Z,77.30
2023-12-09T00:13:18.812Z,77.20
2023-12-09T00:15:46.079Z,77.10
2023-12-09T00:18:15.159Z,77.10
2023-12-09T00:20:42.652Z,76.90
2023-12-09T00:23:10.673Z,77.10
2023-12-09T00:25:38.970Z,77.00
2023-12-09T00:28:06.517Z,77.00
2023-12-09T00:30:34.085Z,77.00
2023-12-09T00:33:02.058Z,76.90
2023-12-09T00:35:29.750Z,76.90
2023-12-09T00:37:57.160Z,77.10
2023-12-09T00:40:24.881Z,77.50
2023-12-09T00:42:52.939Z,77.80
2023-12-09T00:45:20.551Z,77.90
2023-12-09T00:47:48.108Z,78.00
2023-12-09T00:50:16.625Z,78.00
2023-12-09T00:52:44.057Z,77.70
2023-12-09T00:55:12.605Z,77.30
2023-12-09T00:57:40.013Z,77.10
2023-12-09T01:00:08.139Z,77.10
2023-12-09T01:02:35.800Z,77.00
2023-12-09T01:05:03.883Z,77.20
2023-12-09T01:07:31.490Z,77.10
2023-12-09T01:09:58.768Z,77.20
2023-12-09T01:12:26.378Z,77.20
2023-12-09T01:14:54.201Z,77.20
2023-12-09T01:17:21.697Z,77.10
2023-12-09T01:19:49.157Z,77.30
2023-12-09T01:22:16.652Z,77.30
2023-12-09T01:24:44.170Z,77.90
2023-12-09T01:27:11.908Z,78.20
2023-12-09T01:29:39.196Z,78.40
2023-12-09T01:32:07.040Z,78.50
2023-12-09T01:34:35.569Z,79.10
2023-12-09T01:37:03.470Z,79.50
2023-12-09T01:39:30.875Z,79.10
2023-12-09T01:41:58.355Z,78.90
2023-12-09T01:44:26.136Z,78.50
2023-12-09T01:46:53.921Z,78.40
2023-12-09T01:49:21.423Z,78.20
2023-12-09T01:51:48.982Z,77.90
2023-12-09T01:54:16.884Z,77.90
2023-12-09T01:56:44.570Z,78.30
2023-12-09T01:59:12.419Z,78.40
2023-12-09T02:01:39.988Z,78.00
2023-12-09T02:04:08.464Z,77.70
2023-12-09T02:06:36.025Z,77.60
2023-12-09T02:09:04.305Z,77.50
2023-12-09T02:11:53.422Z,77.80
2023-12-09T02:14:30.901Z,77.80
2023-12-09T02:17:26.504Z,77.70
2023-12-09T02:19:54.410Z,77.50
2023-12-09T02:22:22.706Z,77.50
2023-12-09T02:24:50.042Z,77.40
2023-12-09T02:27:28.132Z,77.30
2023-12-09T02:30:19.730Z,77.40
2023-12-09T02:32:49.986Z,77.50
2023-12-09T02:35:20.305Z,77.60
2023-12-09T02:37:48.866Z,78.50
2023-12-09T02:40:18.373Z,77.60
2023-12-09T02:42:47.930Z,77.70
2023-12-09T02:45:20.907Z,77.70
2023-12-09T02:47:49.051Z,77.70
2023-12-09T02:50:16.826Z,77.60
2023-12-09T02:52:44.187Z,77.50
2023-12-09T02:55:12.044Z,76.80
2023-12-09T02:57:39.806Z,77.60
2023-12-09T03:00:08.071Z,77.60
2023-12-09T03:02:35.799Z,77.60
2023-12-09T03:05:03.755Z,77.50
2023-12-09T03:07:31.209Z,77.40
2023-12-09T03:09:58.564Z,77.50
2023-12-09T03:12:26.379Z,77.60
2023-12-09T03:14:54.207Z,77.60
2023-12-09T03:17:22.416Z,77.60
2023-12-09T03:19:50.269Z,77.70
2023-12-09T03:22:17.772Z,77.70
2023-12-09T03:24:45.060Z,77.70
2023-12-09T03:27:12.453Z,77.70
2023-12-09T03:29:39.934Z,77.70
2023-12-09T03:32:07.603Z,77.70
2023-12-09T03:34:35.124Z,77.80
2023-12-09T03:37:02.612Z,77.80
2023-12-09T03:39:30.147Z,77.70
2023-12-09T03:41:57.729Z,77.80
2023-12-09T03:44:25.025Z,77.90
2023-12-09T03:46:52.595Z,77.90
2023-12-09T03:49:20.033Z,78.00
2023-12-09T03:51:47.550Z,78.00
2023-12-09T03:54:14.833Z,78.10
2023-12-09T03:56:42.471Z,78.10
2023-12-09T03:59:10.088Z,78.10
2023-12-09T04:01:37.823Z,78.10
2023-12-09T04:04:05.277Z,78.10
2023-12-09T04:06:33.450Z,78.20
2023-12-09T04:09:01.562Z,78.30
2023-12-09T04:11:28.820Z,78.40
2023-12-09T04:13:56.463Z,78.50
2023-12-09T04:16:23.876Z,79.40
2023-12-09T04:18:51.715Z,78.60
2023-12-09T04:21:19.381Z,78.70
2023-12-09T04:23:47.268Z,78.70
2023-12-09T04:26:14.903Z,78.60
2023-12-09T04:28:42.748Z,78.50
2023-12-09T04:31:10.354Z,78.40
2023-12-09T04:33:37.888Z,78.30
2023-12-09T04:36:05.956Z,78.40
2023-12-09T04:38:33.417Z,78.30
2023-12-09T04:41:00.937Z,78.30
2023-12-09T04:43:29.833Z,78.40
2023-12-09T04:45:57.536Z,78.30
2023-12-09T04:48:26.351Z,78.30
2023-12-09T04:50:53.917Z,78.40
2023-12-09T04:53:21.822Z,78.40
2023-12-09T04:55:49.296Z,78.60
2023-12-09T04:58:16.735Z,78.70
2023-12-09T05:00:44.449Z,78.70
2023-12-09T05:03:12.052Z,78.70
2023-12-09T05:05:39.757Z,78.70
2023-12-09T05:08:07.669Z,78.70
2023-12-09T05:10:34.957Z,78.70
2023-12-09T05:13:02.376Z,78.70
2023-12-09T05:15:32.745Z,78.70
2023-12-09T05:18:01.299Z,78.70
2023-12-09T05:20:28.787Z,78.70
2023-12-09T05:22:56.841Z,78.70
2023-12-09T05:25:24.511Z,78.70
2023-12-09T05:27:52.139Z,78.80
2023-12-09T05:30:19.759Z,78.90
2023-12-09T05:32:47.527Z,78.90
2023-12-09T05:35:15.031Z,78.80
2023-12-09T05:37:42.531Z,78.80
2023-12-09T05:40:10.485Z,78.70
2023-12-09T05:42:38.039Z,78.70
2023-12-09T05:45:06.049Z,78.60
2023-12-09T05:47:33.836Z,78.60
2023-12-09T05:50:01.198Z,78.60
2023-12-09T05:52:28.978Z,78.60
2023-12-09T05:54:56.817Z,78.60
2023-12-09T05:57:24.647Z,78.70
2023-12-09T05:59:52.109Z,78.70
2023-12-09T06:02:19.723Z,78.60
2023-12-09T06:04:47.189Z,78.60
2023-12-09T06:07:14.501Z,78.60
2023-12-09T06:09:42.194Z,78.60
2023-12-09T06:12:09.668Z,78.50
2023-12-09T06:14:37.115Z,78.50
2023-12-09T06:17:04.515Z,78.50
2023-12-09T06:19:32.133Z,78.50
2023-12-09T06:21:59.446Z,78.50
2023-12-09T06:24:26.873Z,78.60
2023-12-09T06:26:54.696Z,78.70
2023-12-09T06:29:22.128Z,78.80
2023-12-09T06:31:49.780Z,78.80
2023-12-09T06:34:17.556Z,78.80
2023-12-09T06:36:45.000Z,78.80
2023-12-09T06:39:12.353Z,78.80
2023-12-09T06:41:40.887Z,78.80
2023-12-09T06:44:08.453Z,78.80
2023-12-09T06:46:39.885Z,78.80
2023-12-09T06:49:08.398Z,78.70
2023-12-09T06:51:36.180Z,78.60
2023-12-09T06:54:04.253Z,78.60
2023-12-09T06:56:31.692Z,78.50
2023-12-09T06:58:59.213Z,78.40
2023-12-09T07:01:29.895Z,78.40
2023-12-09T07:03:57.777Z,78.50
2023-12-09T07:06:27.142Z,78.60
2023-12-09T07:08:55.333Z,78.60
2023-12-09T07:11:23.748Z,78.70
2023-12-09T07:13:51.560Z,78.70
2023-12-09T07:16:20.082Z,78.70
2023-12-09T07:18:51.997Z,78.70
2023-12-09T07:21:19.871Z,78.80
2023-12-09T07:23:47.290Z,78.80
2023-12-09T07:26:15.001Z,78.80
2023-12-09T07:28:42.404Z,78.90
2023-12-09T07:31:10.546Z,78.90
2023-12-09T07:33:38.335Z,79.00
2023-12-09T07:36:06.640Z,79.30
2023-12-09T07:38:34.038Z,79.00
2023-12-09T07:41:02.532Z,79.00
2023-12-09T07:43:30.284Z,79.00
2023-12-09T07:45:57.681Z,78.90
2023-12-09T07:48:25.675Z,78.90
2023-12-09T07:50:53.518Z,78.80
2023-12-09T07:53:21.186Z,78.90
2023-12-09T07:55:48.984Z,78.90
2023-12-09T07:58:16.630Z,78.90
2023-12-09T08:00:44.191Z,78.80
2023-12-09T08:03:11.942Z,78.80
2023-12-09T08:05:41.809Z,78.80
2023-12-09T08:08:11.894Z,78.80
2023-12-09T08:10:39.563Z,78.80
2023-12-09T08:13:09.683Z,78.90
2023-12-09T08:15:37.471Z,78.90
2023-12-09T08:18:05.317Z,78.70
2023-12-09T08:20:32.917Z,78.80
2023-12-09T08:23:00.597Z,78.80
2023-12-09T08:25:29.061Z,78.80
2023-12-09T08:27:56.705Z,78.90
2023-12-09T08:30:24.466Z,78.80
2023-12-09T08:32:52.162Z,78.70
2023-12-09T08:35:19.625Z,78.50
2023-12-09T08:37:47.009Z,78.50
2023-12-09T08:40:14.495Z,78.70
2023-12-09T08:42:43.906Z,78.60
2023-12-09T08:45:13.556Z,78.60
2023-12-09T08:47:43.990Z,78.60
2023-12-09T08:50:22.403Z,78.50
2023-12-09T08:52:55.533Z,78.40
2023-12-09T08:55:23.672Z,78.40
2023-12-09T08:57:52.759Z,78.40
2023-12-09T09:00:22.371Z,78.50
2023-12-09T09:02:51.620Z,78.50
2023-12-09T09:05:19.274Z,78.60
2023-12-09T09:07:47.109Z,78.60
2023-12-09T09:10:16.043Z,78.50
2023-12-09T09:12:45.294Z,78.40
2023-12-09T09:15:13.972Z,78.30
2023-12-09T09:17:42.231Z,78.30
2023-12-09T09:20:11.601Z,78.40
2023-12-09T09:22:39.597Z,78.40
2023-12-09T09:25:07.299Z,78.40
2023-12-09T09:27:34.964Z,78.20
2023-12-09T09:30:02.441Z,78.20
2023-12-09T09:32:30.379Z,78.20
2023-12-09T09:34:58.065Z,78.20
2023-12-09T09:37:25.478Z,78.30
2023-12-09T09:39:53.250Z,78.50
2023-12-09T09:42:27.076Z,78.50
2023-12-09T09:45:07.157Z,78.50
2023-12-09T09:47:38.164Z,78.70
2023-12-09T09:50:09.525Z,78.70
2023-12-09T09:52:38.363Z,78.80
2023-12-09T09:55:09.528Z,78.80
2023-12-09T09:57:38.200Z,79.20
2023-12-09T10:00:17.624Z,78.80
2023-12-09T10:02:48.079Z,78.80
2023-12-09T10:05:17.545Z,78.70
2023-12-09T10:07:45.966Z,78.60
2023-12-09T10:10:15.237Z,78.70
2023-12-09T10:12:43.981Z,78.70
2023-12-09T10:15:12.600Z,78.70
2023-12-09T10:17:40.794Z,78.70
2023-12-09T10:20:10.230Z,78.80
2023-12-09T10:22:38.828Z,78.80
2023-12-09T10:25:06.620Z,78.60
2023-12-09T10:27:34.427Z,78.50
2023-12-09T10:30:02.290Z,78.50
2023-12-09T10:32:30.624Z,78.50
2023-12-09T10:35:00.342Z,78.40
2023-12-09T10:37:30.254Z,78.30
2023-12-09T10:39:57.675Z,78.10
2023-12-09T10:42:26.300Z,77.90
2023-12-09T10:44:55.623Z,77.80
2023-12-09T10:47:23.316Z,77.90
2023-12-09T10:49:51.005Z,78.10
2023-12-09T10:52:18.717Z,78.30
2023-12-09T10:54:46.056Z,78.20
2023-12-09T10:57:13.817Z,78.30
2023-12-09T10:59:42.970Z,78.30
2023-12-09T11:02:11.625Z,77.90
2023-12-09T11:04:40.039Z,77.50
2023-12-09T11:07:10.953Z,77.40
2023-12-09T11:09:39.735Z,77.10
2023-12-09T11:12:08.956Z,77.10
2023-12-09T11:14:38.474Z,77.20
2023-12-09T11:17:34.659Z,77.40
2023-12-09T11:20:11.381Z,77.30
2023-12-09T11:22:41.286Z,77.30
2023-12-09T11:25:20.269Z,77.40
2023-12-09T11:27:53.429Z,77.30
2023-12-09T11:30:35.998Z,77.20
2023-12-09T11:33:05.627Z,77.20
2023-12-09T11:35:37.188Z,77.30
2023-12-09T11:38:09.660Z,77.50
2023-12-09T11:40:37.705Z,77.90
2023-12-09T11:43:07.529Z,78.20
2023-12-09T11:45:36.910Z,78.50
2023-12-09T11:48:06.123Z,78.60
2023-12-09T11:50:33.900Z,78.50
2023-12-09T11:53:01.498Z,78.30
2023-12-09T11:55:30.348Z,78.10
2023-12-09T11:57:58.236Z,77.90
2023-12-09T12:00:25.615Z,77.70
2023-12-09T12:02:53.048Z,77.60
2023-12-09T12:05:21.078Z,77.80
2023-12-09T12:07:49.218Z,77.90
2023-12-09T12:10:16.990Z,78.20
2023-12-09T12:12:45.508Z,78.40
2023-12-09T12:15:14.086Z,78.60
2023-12-09T12:17:42.409Z,78.80
2023-12-09T12:20:12.597Z,79.00
2023-12-09T12:22:41.947Z,79.10
2023-12-09T12:25:10.429Z,79.10
2023-12-09T12:27:44.931Z,79.20
2023-12-09T12:30:14.485Z,79.10
2023-12-09T12:32:43.479Z,79.00
2023-12-09T12:35:11.606Z,79.00
2023-12-09T12:37:39.637Z,78.70
2023-12-09T12:40:07.570Z,78.60
2023-12-09T12:42:36.161Z,78.60
2023-12-09T12:45:16.096Z,78.50
2023-12-09T12:47:44.228Z,78.60
2023-12-09T12:50:12.565Z,78.90
2023-12-09T12:52:40.642Z,79.00
2023-12-09T12:55:13.765Z,79.00
2023-12-09T12:57:41.803Z,78.90
2023-12-09T13:00:12.641Z,78.70
2023-12-09T13:02:40.613Z,78.70
2023-12-09T13:05:08.028Z,78.80
2023-12-09T13:07:35.612Z,78.80
2023-12-09T13:10:05.021Z,78.80
2023-12-09T13:12:33.120Z,79.00
2023-12-09T13:15:00.650Z,79.00
2023-12-09T13:17:28.212Z,79.10
2023-12-09T13:19:55.716Z,79.10
2023-12-09T13:22:23.175Z,79.20
2023-12-09T13:24:54.004Z,79.30
2023-12-09T13:27:21.983Z,79.30
2023-12-09T13:29:49.813Z,79.40
2023-12-09T13:32:17.789Z,79.50
2023-12-09T13:34:45.186Z,79.80
2023-12-09T13:37:12.623Z,79.80
2023-12-09T13:39:40.920Z,80.00
2023-12-09T13:42:09.961Z,80.10
2023-12-09T13:44:40.454Z,80.30
2023-12-09T13:47:08.482Z,80.40
2023-12-09T13:49:36.277Z,80.50
2023-12-09T13:52:04.492Z,80.60
2023-12-09T13:54:31.930Z,80.70
2023-12-09T13:56:59.635Z,80.80
2023-12-09T13:59:27.097Z,80.90
2023-12-09T14:01:54.607Z,81.10
2023-12-09T14:04:22.451Z,81.20
2023-12-09T14:06:50.298Z,81.20
2023-12-09T14:09:18.764Z,81.40
2023-12-09T14:11:46.480Z,81.40
2023-12-09T14:14:14.223Z,81.40
2023-12-09T14:16:43.774Z,81.50
2023-12-09T14:19:14.240Z,81.60
2023-12-09T14:21:42.676Z,81.60
2023-12-09T14:24:10.962Z,81.50
2023-12-09T14:26:39.260Z,81.60
2023-12-09T14:29:07.581Z,81.50
2023-12-09T14:31:35.444Z,81.50
2023-12-09T14:34:03.014Z,81.50
2023-12-09T14:36:30.989Z,81.50
2023-12-09T14:38:58.585Z,81.60
2023-12-09T14:41:26.362Z,81.60
2023-12-09T14:43:59.669Z,81.60
2023-12-09T14:46:33.471Z,81.70
2023-12-09T14:49:01.108Z,81.70
2023-12-09T14:51:40.006Z,81.60
2023-12-09T14:54:14.783Z,81.60
2023-12-09T14:56:43.827Z,81.70
2023-12-09T14:59:11.865Z,82.50
2023-12-09T15:01:39.710Z,81.70
2023-12-09T15:04:07.546Z,81.80
2023-12-09T15:06:35.119Z,81.80
2023-12-09T15:09:03.075Z,81.80
2023-12-09T15:11:30.701Z,81.90
2023-12-09T15:13:58.256Z,81.80
2023-12-09T15:16:25.978Z,82.00
2023-12-09T15:18:53.928Z,82.70
2023-12-09T15:21:21.535Z,82.00
2023-12-09T15:23:49.217Z,82.00
2023-12-09T15:26:17.462Z,82.10
2023-12-09T15:28:47.859Z,82.20
2023-12-09T15:31:17.236Z,82.30
2023-12-09T15:33:46.154Z,82.30
2023-12-09T15:36:13.835Z,82.40
2023-12-09T15:38:41.780Z,82.50
2023-12-09T15:41:09.481Z,82.40
2023-12-09T15:43:38.314Z,82.60
2023-12-09T15:46:06.219Z,82.50
2023-12-09T15:48:34.049Z,82.50
2023-12-09T15:51:03.262Z,82.50
2023-12-09T15:53:30.881Z,82.50
2023-12-09T15:55:58.354Z,82.60
2023-12-09T15:58:26.097Z,82.60
2023-12-09T16:00:54.193Z,82.60
2023-12-09T16:03:22.031Z,82.60
2023-12-09T16:05:49.708Z,82.70
2023-12-09T16:08:17.202Z,82.80
2023-12-09T16:10:44.917Z,82.70
2023-12-09T16:13:12.731Z,82.70
2023-12-09T16:15:40.497Z,82.70
2023-12-09T16:18:08.601Z,82.60
2023-12-09T16:20:36.523Z,82.70
2023-12-09T16:23:04.361Z,82.70
2023-12-09T16:25:32.188Z,82.80
2023-12-09T16:27:59.934Z,82.80
2023-12-09T16:30:27.832Z,82.90
2023-12-09T16:32:55.848Z,83.00
2023-12-09T16:35:23.506Z,83.00
2023-12-09T16:37:51.024Z,82.90
2023-12-09T16:40:18.610Z,82.90
2023-12-09T16:42:46.168Z,83.00
2023-12-09T16:45:15.035Z,83.00
2023-12-09T16:47:42.893Z,83.00
2023-12-09T16:50:12.219Z,82.90
2023-12-09T16:52:41.546Z,82.90
2023-12-09T16:55:09.544Z,82.90
2023-12-09T16:57:39.335Z,82.90
2023-12-09T17:00:07.441Z,83.60
2023-12-09T17:02:35.117Z,82.80
2023-12-09T17:05:02.695Z,82.80
2023-12-09T17:07:30.213Z,82.80
2023-12-09T17:09:57.926Z,82.60
2023-12-09T17:12:25.639Z,82.60
2023-12-09T17:14:53.324Z,82.60
2023-12-09T17:17:21.070Z,82.60
2023-12-09T17:19:48.572Z,82.60
2023-12-09T17:22:16.429Z,82.50
2023-12-09T17:24:43.797Z,82.50
2023-12-09T17:27:11.955Z,82.40
2023-12-09T17:29:39.502Z,82.50
2023-12-09T17:32:07.158Z,82.50
2023-12-09T17:34:35.824Z,82.40
2023-12-09T17:37:03.832Z,82.40
2023-12-09T17:39:31.526Z,82.30
2023-12-09T17:41:59.673Z,82.30
2023-12-09T17:44:27.462Z,82.40
2023-12-09T17:46:56.084Z,82.40
2023-12-09T17:49:23.830Z,82.30
2023-12-09T17:51:51.525Z,82.50
2023-12-09T17:54:19.783Z,82.40
2023-12-09T17:56:47.996Z,82.50
2023-12-09T17:59:15.618Z,82.40
2023-12-09T18:01:43.720Z,82.50
2023-12-09T18:04:11.360Z,82.50
2023-12-09T18:06:39.571Z,82.50
2023-12-09T18:09:07.830Z,82.50
2023-12-09T18:11:35.582Z,82.50
2023-12-09T18:14:03.406Z,82.50
2023-12-09T18:16:31.606Z,82.50
2023-12-09T18:18:59.388Z,82.60
2023-12-09T18:21:27.144Z,82.60
2023-12-09T18:23:55.278Z,82.60
2023-12-09T18:26:23.174Z,82.60
2023-12-09T18:28:51.243Z,82.50
2023-12-09T18:31:21.355Z,82.50
2023-12-09T18:33:49.129Z,82.50
2023-12-09T18:36:16.653Z,82.60
2023-12-09T18:38:44.188Z,82.60
2023-12-09T18:41:11.655Z,82.60
2023-12-09T18:43:39.636Z,82.70
2023-12-09T18:46:07.522Z,82.70
2023-12-09T18:48:35.600Z,82.70
2023-12-09T18:51:04.654Z,82.70
2023-12-09T18:53:32.298Z,82.60
2023-12-09T18:56:01.817Z,82.70
2023-12-09T18:58:29.556Z,82.60
2023-12-09T19:01:04.935Z,82.60
2023-12-09T19:03:38.338Z,82.60
2023-12-09T19:06:06.369Z,82.60
2023-12-09T19:08:34.173Z,82.60
2023-12-09T19:11:01.922Z,82.60
2023-12-09T19:13:29.691Z,82.70
2023-12-09T19:15:57.300Z,82.80
2023-12-09T19:18:25.157Z,82.80
2023-12-09T19:20:52.899Z,82.80
2023-12-09T19:23:20.826Z,82.80
2023-12-09T19:25:48.613Z,82.80
2023-12-09T19:28:16.508Z,82.80
2023-12-09T19:30:44.348Z,82.80
2023-12-09T19:33:12.036Z,82.80
2023-12-09T19:35:39.801Z,82.70
2023-12-09T19:38:07.542Z,82.60
2023-12-09T19:40:35.687Z,82.50
2023-12-09T19:43:03.608Z,82.50
2023-12-09T19:45:34.400Z,82.50
2023-12-09T19:48:02.373Z,82.50
2023-12-09T19:50:31.260Z,82.50
2023-12-09T19:53:00.369Z,82.40
2023-12-09T19:55:28.089Z,82.20
2023-12-09T19:57:55.689Z,82.30
2023-12-09T20:00:23.193Z,82.30
2023-12-09T20:02:50.777Z,82.20
2023-12-09T20:05:19.207Z,82.20
2023-12-09T20:07:46.729Z,82.20
2023-12-09T20:10:14.632Z,82.20
2023-12-09T20:12:42.105Z,82.20
2023-12-09T20:15:12.794Z,82.20
2023-12-09T20:17:40.516Z,82.30
2023-12-09T20:20:08.838Z,82.30
2023-12-09T20:22:37.117Z,82.30
2023-12-09T20:25:05.715Z,82.20
2023-12-09T20:27:33.172Z,82.20
2023-12-09T20:30:00.929Z,82.30
2023-12-09T20:32:29.062Z,82.30
2023-12-09T20:34:58.080Z,82.20
2023-12-09T20:37:26.352Z,82.30
2023-12-09T20:39:57.929Z,82.40
2023-12-09T20:42:25.850Z,82.40
2023-12-09T20:44:53.937Z,82.50
2023-12-09T20:47:21.386Z,82.70
2023-12-09T20:49:48.986Z,82.70
2023-12-09T20:52:17.158Z,82.70
2023-12-09T20:54:47.908Z,82.70
2023-12-09T20:57:15.623Z,82.60
2023-12-09T20:59:43.552Z,82.60
2023-12-09T21:02:11.311Z,82.60
2023-12-09T21:04:45.002Z,82.60
2023-12-09T21:07:12.741Z,82.60
2023-12-09T21:09:40.910Z,82.60
2023-12-09T21:12:09.135Z,82.60
2023-12-09T21:14:36.983Z,82.70
2023-12-09T21:17:04.779Z,82.90
2023-12-09T21:19:35.497Z,83.00
2023-12-09T21:22:03.987Z,83.10
2023-12-09T21:24:32.394Z,83.20
2023-12-09T21:27:00.309Z,83.20
2023-12-09T21:29:28.221Z,83.30
2023-12-09T21:31:55.642Z,83.20
2023-12-09T21:34:23.242Z,83.20
2023-12-09T21:36:51.022Z,83.30
2023-12-09T21:39:18.805Z,83.30
2023-12-09T21:41:46.311Z,83.30
2023-12-09T21:44:13.763Z,83.40
2023-12-09T21:46:42.449Z,83.40
2023-12-09T21:49:09.966Z,83.40
2023-12-09T21:51:41.324Z,83.50
2023-12-09T21:54:08.880Z,83.40
2023-12-09T21:56:36.551Z,84.10
2023-12-09T21:59:04.294Z,83.30
2023-12-09T22:01:31.768Z,83.20
2023-12-09T22:03:59.222Z,83.20
2023-12-09T22:06:26.946Z,83.10
2023-12-09T22:08:55.294Z,83.80
2023-12-09T22:11:22.623Z,82.90
2023-12-09T22:13:50.308Z,82.80
2023-12-09T22:16:21.473Z,82.70
2023-12-09T22:18:50.160Z,82.50
2023-12-09T22:21:18.038Z,82.30
2023-12-09T22:23:45.864Z,82.30
2023-12-09T22:26:14.341Z,82.30
2023-12-09T22:28:42.051Z,82.50
2023-12-09T22:31:10.161Z,82.70
2023-12-09T22:33:38.438Z,83.00
2023-12-09T22:36:09.823Z,83.10
2023-12-09T22:38:37.625Z,83.30
2023-12-09T22:41:05.410Z,83.40
2023-12-09T22:43:32.909Z,83.50
2023-12-09T22:46:00.492Z,83.40
2023-12-09T22:48:28.160Z,83.40
2023-12-09T22:50:56.949Z,83.30
2023-12-09T22:53:24.445Z,83.10
2023-12-09T22:55:52.173Z,82.80
2023-12-09T22:58:39.644Z,82.60
2023-12-09T23:01:07.605Z,82.40
2023-12-09T23:03:35.751Z,82.40
2023-12-09T23:06:03.842Z,82.30
2023-12-09T23:08:31.254Z,82.30
2023-12-09T23:10:59.151Z,82.30
2023-12-09T23:13:26.917Z,82.40
2023-12-09T23:15:54.454Z,82.40
2023-12-09T23:18:22.555Z,82.40
2023-12-09T23:20:50.536Z,82.50
2023-12-09T23:23:17.945Z,82.70
2023-12-09T23:25:45.577Z,82.70
2023-12-09T23:28:12.925Z,82.80
2023-12-09T23:30:40.998Z,82.90
2023-12-09T23:33:08.953Z,83.00
2023-12-09T23:35:36.626Z,83.20
2023-12-09T23:38:04.800Z,83.30
2023-12-09T23:40:32.686Z,83.30
2023-12-09T23:43:00.520Z,83.20
2023-12-09T23:45:28.371Z,83.10
2023-12-09T23:47:56.178Z,83.00
2023-12-09T23:50:23.734Z,83.00
2023-12-09T23:52:51.223Z,83.00
2023-12-09T23:55:19.434Z,83.00
2023-12-09T23:57:46.948Z,83.10
